sensor_id;sensor_type;location;lat;lon;timestamp;pressure;altitude;pressure_sealevel;temperature;humidity
42671;BME280;28283;55.426;37.756;2023-04-08T00:03:38;100457.84;;;3.75;46.50
42671;BME280;28283;55.426;37.756;2023-04-08T00:08:38;100474.38;;;3.78;46.38
42671;BME280;28283;55.426;37.756;2023-04-08T00:13:39;100451.88;;;3.61;46.20
42671;BME280;28283;55.426;37.756;2023-04-08T00:18:40;100474.78;;;3.74;46.52
42671;BME280;28283;55.426;37.756;2023-04-08T00:23:42;100447.22;;;3.54;46.38
42671;BME280;28283;55.426;37.756;2023-04-08T00:28:43;100411.94;;;3.31;46.86
42671;BME280;28283;55.426;37.756;2023-04-08T00:33:44;100470.03;;;3.56;47.16
42671;BME280;28283;55.426;37.756;2023-04-08T00:38:45;100445.97;;;3.37;46.97
42671;BME280;28283;55.426;37.756;2023-04-08T00:43:45;100456.84;;;3.34;47.05
42671;BME280;28283;55.426;37.756;2023-04-08T00:48:46;100422.41;;;3.11;47.59
42671;BME280;28283;55.426;37.756;2023-04-08T00:53:47;100471.69;;;3.36;47.18
42671;BME280;28283;55.426;37.756;2023-04-08T00:58:47;100465.09;;;3.31;47.55
42671;BME280;28283;55.426;37.756;2023-04-08T01:09:30;100475.88;;;3.18;47.97
42671;BME280;28283;55.426;37.756;2023-04-08T01:14:34;100433.72;;;2.81;48.23
42671;BME280;28283;55.426;37.756;2023-04-08T01:19:39;100458.81;;;2.88;48.59
42671;BME280;28283;55.426;37.756;2023-04-08T01:24:43;100480.75;;;2.90;48.42
42671;BME280;28283;55.426;37.756;2023-04-08T01:29:46;100473.31;;;2.84;49.08
42671;BME280;28283;55.426;37.756;2023-04-08T01:34:48;100474.50;;;2.80;49.02
42671;BME280;28283;55.426;37.756;2023-04-08T01:39:49;100482.72;;;2.77;48.83
42671;BME280;28283;55.426;37.756;2023-04-08T01:44:51;100483.91;;;2.73;49.04
42671;BME280;28283;55.426;37.756;2023-04-08T01:49:55;100481.41;;;2.71;49.18
42671;BME280;28283;55.426;37.756;2023-04-08T01:54:56;100476.69;;;2.63;49.75
42671;BME280;28283;55.426;37.756;2023-04-08T02:00:01;100473.44;;;2.60;49.88
42671;BME280;28283;55.426;37.756;2023-04-08T02:05:03;100470.06;;;2.58;49.31
42671;BME280;28283;55.426;37.756;2023-04-08T02:10:05;100476.22;;;2.47;49.54
42671;BME280;28283;55.426;37.756;2023-04-08T02:15:07;100493.38;;;2.43;50.46
42671;BME280;28283;55.426;37.756;2023-04-08T02:25:24;100474.41;;;2.14;51.39
42671;BME280;28283;55.426;37.756;2023-04-08T02:30:26;100491.16;;;2.14;51.65
42671;BME280;28283;55.426;37.756;2023-04-08T02:35:27;100483.66;;;2.08;51.46
42671;BME280;28283;55.426;37.756;2023-04-08T02:40:30;100491.28;;;2.01;51.45
42671;BME280;28283;55.426;37.756;2023-04-08T02:45:36;100495.84;;;1.99;52.15
42671;BME280;28283;55.426;37.756;2023-04-08T02:50:37;100498.00;;;1.94;51.70
42671;BME280;28283;55.426;37.756;2023-04-08T02:55:39;100502.59;;;1.92;52.17
42671;BME280;28283;55.426;37.756;2023-04-08T03:00:40;100483.75;;;1.84;52.09
42671;BME280;28283;55.426;37.756;2023-04-08T03:05:40;100498.72;;;1.85;52.09
42671;BME280;28283;55.426;37.756;2023-04-08T03:10:41;100489.91;;;1.84;52.43
42671;BME280;28283;55.426;37.756;2023-04-08T03:15:42;100505.56;;;1.87;52.33
42671;BME280;28283;55.426;37.756;2023-04-08T03:20:42;100454.50;;;1.50;53.07
42671;BME280;28283;55.426;37.756;2023-04-08T03:25:43;100501.47;;;1.83;52.43
42671;BME280;28283;55.426;37.756;2023-04-08T03:30:44;100506.66;;;1.85;52.31
42671;BME280;28283;55.426;37.756;2023-04-08T03:35:45;100505.69;;;1.86;52.66
42671;BME280;28283;55.426;37.756;2023-04-08T03:40:45;100454.16;;;1.55;52.54
42671;BME280;28283;55.426;37.756;2023-04-08T03:45:46;100500.97;;;1.78;52.64
42671;BME280;28283;55.426;37.756;2023-04-08T03:50:47;100505.34;;;1.90;52.89
42671;BME280;28283;55.426;37.756;2023-04-08T03:55:48;100502.81;;;1.89;52.95
42671;BME280;28283;55.426;37.756;2023-04-08T04:00:52;100510.69;;;2.02;53.05
42671;BME280;28283;55.426;37.756;2023-04-08T04:05:53;100510.56;;;2.15;53.00
42671;BME280;28283;55.426;37.756;2023-04-08T04:10:53;100523.00;;;2.25;52.94
42671;BME280;28283;55.426;37.756;2023-04-08T04:15:54;100473.06;;;2.08;53.11
42671;BME280;28283;55.426;37.756;2023-04-08T04:20:56;100524.84;;;2.59;53.09
42671;BME280;28283;55.426;37.756;2023-04-08T04:25:56;100500.94;;;2.70;52.39
42671;BME280;28283;55.426;37.756;2023-04-08T04:30:57;100517.72;;;2.93;52.41
42671;BME280;28283;55.426;37.756;2023-04-08T04:35:57;100533.59;;;3.27;52.30
42671;BME280;28283;55.426;37.756;2023-04-08T04:40:58;100529.88;;;3.51;51.93
42671;BME280;28283;55.426;37.756;2023-04-08T04:45:59;100525.66;;;3.80;51.60
42671;BME280;28283;55.426;37.756;2023-04-08T04:51:01;100486.94;;;3.88;51.26
42671;BME280;28283;55.426;37.756;2023-04-08T04:56:06;100523.69;;;4.46;50.75
42671;BME280;28283;55.426;37.756;2023-04-08T05:01:07;100522.28;;;4.82;49.69
42671;BME280;28283;55.426;37.756;2023-04-08T05:06:08;100501.59;;;4.95;49.16
42671;BME280;28283;55.426;37.756;2023-04-08T05:11:10;100536.19;;;5.46;49.13
42671;BME280;28283;55.426;37.756;2023-04-08T05:16:11;100547.41;;;5.88;48.43
42671;BME280;28283;55.426;37.756;2023-04-08T05:21:11;100546.72;;;6.25;47.65
42671;BME280;28283;55.426;37.756;2023-04-08T05:26:12;100550.31;;;6.54;47.24
42671;BME280;28283;55.426;37.756;2023-04-08T05:31:16;100564.50;;;6.92;46.67
42671;BME280;28283;55.426;37.756;2023-04-08T05:36:17;100566.66;;;7.34;45.99
42671;BME280;28283;55.426;37.756;2023-04-08T05:41:18;100571.00;;;7.62;45.30
42671;BME280;28283;55.426;37.756;2023-04-08T05:46:18;100564.03;;;7.88;45.17
42671;BME280;28283;55.426;37.756;2023-04-08T05:51:19;100554.38;;;8.13;44.46
42671;BME280;28283;55.426;37.756;2023-04-08T05:56:20;100559.25;;;8.35;44.29
42671;BME280;28283;55.426;37.756;2023-04-08T06:01:20;100557.00;;;8.49;44.04
42671;BME280;28283;55.426;37.756;2023-04-08T06:06:22;100562.78;;;8.62;43.77
42671;BME280;28283;55.426;37.756;2023-04-08T06:11:23;100543.66;;;8.57;43.63
42671;BME280;28283;55.426;37.756;2023-04-08T06:16:23;100528.94;;;8.61;43.70
42671;BME280;28283;55.426;37.756;2023-04-08T06:21:24;100541.06;;;8.73;43.52
42671;BME280;28283;55.426;37.756;2023-04-08T06:26:25;100556.91;;;8.85;43.63
42671;BME280;28283;55.426;37.756;2023-04-08T06:31:27;100550.75;;;9.01;43.38
42671;BME280;28283;55.426;37.756;2023-04-08T06:36:27;100558.09;;;9.41;42.31
42671;BME280;28283;55.426;37.756;2023-04-08T06:41:28;100508.44;;;9.21;42.23
42671;BME280;28283;55.426;37.756;2023-04-08T06:46:29;100552.69;;;9.25;42.85
42671;BME280;28283;55.426;37.756;2023-04-08T06:51:30;100558.41;;;9.38;42.88
42671;BME280;28283;55.426;37.756;2023-04-08T06:56:31;100476.66;;;9.00;42.46
42671;BME280;28283;55.426;37.756;2023-04-08T07:01:32;100553.47;;;9.68;42.38
42671;BME280;28283;55.426;37.756;2023-04-08T07:06:32;100525.28;;;9.64;42.41
42671;BME280;28283;55.426;37.756;2023-04-08T07:11:33;100556.19;;;9.92;42.63
42671;BME280;28283;55.426;37.756;2023-04-08T07:16:34;100558.50;;;10.12;41.98
42671;BME280;28283;55.426;37.756;2023-04-08T07:21:34;100548.13;;;10.34;41.10
42671;BME280;28283;55.426;37.756;2023-04-08T07:26:36;100513.84;;;10.19;41.28
42671;BME280;28283;55.426;37.756;2023-04-08T07:31:37;100546.09;;;10.52;41.68
42671;BME280;28283;55.426;37.756;2023-04-08T07:36:38;100535.28;;;10.60;41.35
42671;BME280;28283;55.426;37.756;2023-04-08T07:41:40;100544.59;;;10.97;41.23
42671;BME280;28283;55.426;37.756;2023-04-08T07:46:40;100544.69;;;10.73;41.39
42671;BME280;28283;55.426;37.756;2023-04-08T07:51:41;100537.97;;;10.68;41.18
42671;BME280;28283;55.426;37.756;2023-04-08T07:56:42;100551.53;;;10.92;40.97
42671;BME280;28283;55.426;37.756;2023-04-08T08:01:44;100546.56;;;11.12;40.96
42671;BME280;28283;55.426;37.756;2023-04-08T08:06:46;100539.28;;;11.20;40.17
42671;BME280;28283;55.426;37.756;2023-04-08T08:11:47;100548.09;;;11.37;39.20
42671;BME280;28283;55.426;37.756;2023-04-08T08:16:48;100533.81;;;11.37;39.88
42671;BME280;28283;55.426;37.756;2023-04-08T08:21:49;100539.34;;;11.43;39.82
42671;BME280;28283;55.426;37.756;2023-04-08T08:26:49;100537.19;;;11.62;39.36
42671;BME280;28283;55.426;37.756;2023-04-08T08:31:50;100531.47;;;11.65;38.72
42671;BME280;28283;55.426;37.756;2023-04-08T08:36:51;100511.81;;;11.56;38.51
42671;BME280;28283;55.426;37.756;2023-04-08T08:41:52;100511.56;;;11.66;38.87
42671;BME280;28283;55.426;37.756;2023-04-08T08:46:53;100517.81;;;11.67;38.31
42671;BME280;28283;55.426;37.756;2023-04-08T08:51:54;100521.47;;;11.74;37.40
42671;BME280;28283;55.426;37.756;2023-04-08T08:56:55;100518.88;;;11.80;37.35
42671;BME280;28283;55.426;37.756;2023-04-08T09:01:55;100524.88;;;11.91;37.49
42671;BME280;28283;55.426;37.756;2023-04-08T09:07:14;100518.25;;;12.16;37.58
42671;BME280;28283;55.426;37.756;2023-04-08T09:12:15;100508.59;;;12.22;37.06
42671;BME280;28283;55.426;37.756;2023-04-08T09:17:31;100519.78;;;12.34;36.98
42671;BME280;28283;55.426;37.756;2023-04-08T09:22:32;100517.75;;;12.36;37.51
42671;BME280;28283;55.426;37.756;2023-04-08T09:27:36;100519.91;;;12.55;36.45
42671;BME280;28283;55.426;37.756;2023-04-08T09:32:56;100516.47;;;12.76;37.00
42671;BME280;28283;55.426;37.756;2023-04-08T09:37:57;100510.78;;;12.86;36.56
42671;BME280;28283;55.426;37.756;2023-04-08T09:42:59;100502.88;;;12.99;37.15
42671;BME280;28283;55.426;37.756;2023-04-08T09:53:35;100505.44;;;13.23;36.42
42671;BME280;28283;55.426;37.756;2023-04-08T09:58:40;100499.94;;;13.16;37.11
42671;BME280;28283;55.426;37.756;2023-04-08T10:03:48;100485.63;;;13.52;36.41
42671;BME280;28283;55.426;37.756;2023-04-08T10:08:51;100483.56;;;13.54;36.28
42671;BME280;28283;55.426;37.756;2023-04-08T10:13:52;100492.94;;;13.80;36.29
42671;BME280;28283;55.426;37.756;2023-04-08T10:18:53;100486.13;;;14.12;35.85
42671;BME280;28283;55.426;37.756;2023-04-08T10:24:00;100481.09;;;14.37;35.08
42671;BME280;28283;55.426;37.756;2023-04-08T10:34:18;100476.56;;;14.73;34.58
42671;BME280;28283;55.426;37.756;2023-04-08T10:39:20;100458.25;;;14.68;34.10
42671;BME280;28283;55.426;37.756;2023-04-08T10:44:23;100474.78;;;14.93;34.10
42671;BME280;28283;55.426;37.756;2023-04-08T10:49:31;100472.97;;;15.14;34.03
42671;BME280;28283;55.426;37.756;2023-04-08T10:54:32;100476.81;;;15.46;31.98
42671;BME280;28283;55.426;37.756;2023-04-08T10:59:33;100417.84;;;15.61;31.33
42671;BME280;28283;55.426;37.756;2023-04-08T11:04:40;100444.75;;;16.16;31.55
42671;BME280;28283;55.426;37.756;2023-04-08T11:09:41;100429.53;;;16.15;30.56
42671;BME280;28283;55.426;37.756;2023-04-08T11:14:42;100442.25;;;16.93;32.52
42671;BME280;28283;55.426;37.756;2023-04-08T11:19:43;100433.56;;;16.71;30.13
42671;BME280;28283;55.426;37.756;2023-04-08T11:24:45;100436.81;;;16.93;29.60
42671;BME280;28283;55.426;37.756;2023-04-08T11:29:46;100443.06;;;16.94;29.89
42671;BME280;28283;55.426;37.756;2023-04-08T11:34:48;100401.94;;;16.90;29.56
42671;BME280;28283;55.426;37.756;2023-04-08T11:39:48;100433.38;;;17.50;30.87
42671;BME280;28283;55.426;37.756;2023-04-08T11:44:49;100417.28;;;17.10;28.19
42671;BME280;28283;55.426;37.756;2023-04-08T11:49:49;100429.34;;;17.21;28.30
42671;BME280;28283;55.426;37.756;2023-04-08T11:54:50;100417.28;;;17.48;28.21
42671;BME280;28283;55.426;37.756;2023-04-08T11:59:54;100420.59;;;17.75;28.47
42671;BME280;28283;55.426;37.756;2023-04-08T12:04:55;100413.81;;;17.91;28.47
42671;BME280;28283;55.426;37.756;2023-04-08T12:09:56;100388.22;;;18.18;28.66
42671;BME280;28283;55.426;37.756;2023-04-08T12:14:56;100406.44;;;18.91;27.36
42671;BME280;28283;55.426;37.756;2023-04-08T12:19:57;100410.53;;;18.82;27.59
42671;BME280;28283;55.426;37.756;2023-04-08T12:24:58;100403.50;;;18.56;27.66
42671;BME280;28283;55.426;37.756;2023-04-08T12:29:59;100400.50;;;18.27;28.14
42671;BME280;28283;55.426;37.756;2023-04-08T12:35:00;100391.78;;;18.18;29.26
42671;BME280;28283;55.426;37.756;2023-04-08T12:40:00;100392.41;;;17.45;28.98
42671;BME280;28283;55.426;37.756;2023-04-08T12:45:04;100373.66;;;17.05;29.52
42671;BME280;28283;55.426;37.756;2023-04-08T12:50:04;100368.13;;;16.86;29.80
42671;BME280;28283;55.426;37.756;2023-04-08T12:55:06;100382.59;;;16.73;29.88
42671;BME280;28283;55.426;37.756;2023-04-08T13:00:07;100375.25;;;16.87;30.98
42671;BME280;28283;55.426;37.756;2023-04-08T13:05:09;100355.63;;;16.20;30.57
42671;BME280;28283;55.426;37.756;2023-04-08T13:10:10;100355.28;;;15.96;31.14
42671;BME280;28283;55.426;37.756;2023-04-08T13:15:11;100350.53;;;15.92;30.83
42671;BME280;28283;55.426;37.756;2023-04-08T13:20:11;100344.91;;;15.80;30.55
42671;BME280;28283;55.426;37.756;2023-04-08T13:25:12;100354.25;;;15.91;30.20
42671;BME280;28283;55.426;37.756;2023-04-08T13:30:13;100339.88;;;15.77;30.35
42671;BME280;28283;55.426;37.756;2023-04-08T13:35:14;100349.47;;;15.73;30.43
42671;BME280;28283;55.426;37.756;2023-04-08T13:40:15;100340.50;;;15.65;30.63
42671;BME280;28283;55.426;37.756;2023-04-08T13:45:15;100349.69;;;15.78;30.19
42671;BME280;28283;55.426;37.756;2023-04-08T13:50:16;100345.50;;;15.69;31.18
42671;BME280;28283;55.426;37.756;2023-04-08T13:55:17;100339.69;;;15.65;30.73
42671;BME280;28283;55.426;37.756;2023-04-08T14:00:17;100339.47;;;15.53;31.09
42671;BME280;28283;55.426;37.756;2023-04-08T14:05:18;100331.53;;;15.45;31.13
42671;BME280;28283;55.426;37.756;2023-04-08T14:10:19;100331.56;;;15.32;31.34
42671;BME280;28283;55.426;37.756;2023-04-08T14:15:19;100319.88;;;15.11;31.98
42671;BME280;28283;55.426;37.756;2023-04-08T14:20:20;100289.41;;;14.69;32.04
42671;BME280;28283;55.426;37.756;2023-04-08T14:25:21;100332.31;;;14.85;32.23
42671;BME280;28283;55.426;37.756;2023-04-08T14:30:21;100309.16;;;14.69;32.42
42671;BME280;28283;55.426;37.756;2023-04-08T14:35:22;100323.97;;;14.74;32.44
42671;BME280;28283;55.426;37.756;2023-04-08T14:40:23;100326.50;;;14.75;32.41
42671;BME280;28283;55.426;37.756;2023-04-08T14:45:23;100323.13;;;14.66;32.60
42671;BME280;28283;55.426;37.756;2023-04-08T14:50:24;100308.66;;;14.46;33.00
42671;BME280;28283;55.426;37.756;2023-04-08T14:55:24;100319.47;;;14.46;33.04
42671;BME280;28283;55.426;37.756;2023-04-08T15:00:27;100310.94;;;14.42;33.01
42671;BME280;28283;55.426;37.756;2023-04-08T15:05:28;100312.19;;;14.40;33.03
42671;BME280;28283;55.426;37.756;2023-04-08T15:10:29;100325.44;;;14.28;33.30
42671;BME280;28283;55.426;37.756;2023-04-08T15:15:30;100276.78;;;13.86;33.64
42671;BME280;28283;55.426;37.756;2023-04-08T15:20:31;100324.72;;;14.06;33.91
42671;BME280;28283;55.426;37.756;2023-04-08T15:25:31;100317.56;;;13.91;34.64
42671;BME280;28283;55.426;37.756;2023-04-08T15:30:32;100321.63;;;13.74;34.83
42671;BME280;28283;55.426;37.756;2023-04-08T15:35:37;100294.84;;;13.51;34.92
42671;BME280;28283;55.426;37.756;2023-04-08T15:40:38;100314.41;;;13.53;35.53
42671;BME280;28283;55.426;37.756;2023-04-08T15:45:42;100308.72;;;13.41;35.63
42671;BME280;28283;55.426;37.756;2023-04-08T15:50:43;100313.88;;;13.36;36.03
42671;BME280;28283;55.426;37.756;2023-04-08T15:55:43;100309.41;;;13.28;36.55
42671;BME280;28283;55.426;37.756;2023-04-08T16:00:44;100321.63;;;13.24;36.71
42671;BME280;28283;55.426;37.756;2023-04-08T16:05:45;100323.84;;;13.14;36.92
42671;BME280;28283;55.426;37.756;2023-04-08T16:10:46;100320.72;;;12.95;37.68
42671;BME280;28283;55.426;37.756;2023-04-08T16:15:47;100334.75;;;12.84;37.28
42671;BME280;28283;55.426;37.756;2023-04-08T16:20:47;100335.63;;;12.70;37.77
42671;BME280;28283;55.426;37.756;2023-04-08T16:25:49;100318.75;;;12.46;37.68
42671;BME280;28283;55.426;37.756;2023-04-08T16:30:49;100294.09;;;12.13;38.43
42671;BME280;28283;55.426;37.756;2023-04-08T16:35:51;100348.91;;;12.35;38.09
42671;BME280;28283;55.426;37.756;2023-04-08T16:40:52;100348.28;;;12.18;38.90
42671;BME280;28283;55.426;37.756;2023-04-08T16:45:56;100342.91;;;12.03;39.56
42671;BME280;28283;55.426;37.756;2023-04-08T16:50:56;100348.38;;;11.95;38.68
42671;BME280;28283;55.426;37.756;2023-04-08T16:55:57;100348.63;;;11.85;39.09
42671;BME280;28283;55.426;37.756;2023-04-08T17:00:57;100345.34;;;11.75;39.48
42671;BME280;28283;55.426;37.756;2023-04-08T17:06:07;100367.72;;;11.75;39.43
42671;BME280;28283;55.426;37.756;2023-04-08T17:11:13;100353.00;;;11.48;39.68
42671;BME280;28283;55.426;37.756;2023-04-08T17:16:15;100382.44;;;11.50;39.53
42671;BME280;28283;55.426;37.756;2023-04-08T17:21:16;100359.09;;;11.27;40.48
42671;BME280;28283;55.426;37.756;2023-04-08T17:26:17;100381.81;;;11.24;40.08
42671;BME280;28283;55.426;37.756;2023-04-08T17:31:30;100375.34;;;11.11;40.32
42671;BME280;28283;55.426;37.756;2023-04-08T17:36:30;100374.81;;;10.92;41.03
42671;BME280;28283;55.426;37.756;2023-04-08T17:41:32;100390.13;;;10.92;41.17
42671;BME280;28283;55.426;37.756;2023-04-08T17:46:33;100388.22;;;11.00;39.69
42671;BME280;28283;55.426;37.756;2023-04-08T17:51:33;100378.97;;;10.72;41.96
42671;BME280;28283;55.426;37.756;2023-04-08T17:56:34;100382.91;;;10.61;42.31
42671;BME280;28283;55.426;37.756;2023-04-08T18:01:34;100376.75;;;10.44;42.70
42671;BME280;28283;55.426;37.756;2023-04-08T18:06:38;100376.44;;;10.30;42.74
42671;BME280;28283;55.426;37.756;2023-04-08T18:11:39;100388.72;;;10.33;43.36
42671;BME280;28283;55.426;37.756;2023-04-08T18:16:40;100362.38;;;10.12;43.50
42671;BME280;28283;55.426;37.756;2023-04-08T18:21:40;100383.72;;;10.13;44.03
42671;BME280;28283;55.426;37.756;2023-04-08T18:26:41;100382.72;;;10.06;44.56
42671;BME280;28283;55.426;37.756;2023-04-08T18:31:42;100379.59;;;9.94;44.86
42671;BME280;28283;55.426;37.756;2023-04-08T18:36:42;100357.66;;;9.74;44.66
42671;BME280;28283;55.426;37.756;2023-04-08T18:41:43;100359.84;;;9.71;45.10
42671;BME280;28283;55.426;37.756;2023-04-08T18:46:43;100377.28;;;9.67;45.77
42671;BME280;28283;55.426;37.756;2023-04-08T18:51:45;100357.84;;;9.57;45.64
42671;BME280;28283;55.426;37.756;2023-04-08T18:56:45;100378.28;;;9.58;45.85
42671;BME280;28283;55.426;37.756;2023-04-08T19:01:46;100366.56;;;9.42;46.24
42671;BME280;28283;55.426;37.756;2023-04-08T19:06:47;100370.94;;;9.35;46.60
42671;BME280;28283;55.426;37.756;2023-04-08T19:11:47;100371.59;;;9.29;46.31
42671;BME280;28283;55.426;37.756;2023-04-08T19:16:48;100353.13;;;9.09;46.74
42671;BME280;28283;55.426;37.756;2023-04-08T19:21:48;100365.22;;;9.13;47.25
42671;BME280;28283;55.426;37.756;2023-04-08T19:26:49;100360.16;;;9.02;47.32
42671;BME280;28283;55.426;37.756;2023-04-08T19:31:52;100364.53;;;8.95;47.49
42671;BME280;28283;55.426;37.756;2023-04-08T19:36:53;100369.06;;;8.94;47.44
42671;BME280;28283;55.426;37.756;2023-04-08T19:41:53;100375.09;;;8.88;47.43
42671;BME280;28283;55.426;37.756;2023-04-08T19:46:54;100374.06;;;8.81;47.90
42671;BME280;28283;55.426;37.756;2023-04-08T19:51:56;100369.66;;;8.72;47.99
42671;BME280;28283;55.426;37.756;2023-04-08T19:56:58;100372.19;;;8.73;48.03
42671;BME280;28283;55.426;37.756;2023-04-08T20:01:58;100364.84;;;8.41;48.14
42671;BME280;28283;55.426;37.756;2023-04-08T20:06:59;100385.75;;;8.64;48.16
42671;BME280;28283;55.426;37.756;2023-04-08T20:12:03;100396.28;;;8.57;48.21
42671;BME280;28283;55.426;37.756;2023-04-08T20:17:05;100383.69;;;8.49;48.18
42671;BME280;28283;55.426;37.756;2023-04-08T20:22:05;100401.78;;;8.55;48.44
42671;BME280;28283;55.426;37.756;2023-04-08T20:27:06;100399.09;;;8.55;48.67
42671;BME280;28283;55.426;37.756;2023-04-08T20:32:07;100390.69;;;8.42;48.82
42671;BME280;28283;55.426;37.756;2023-04-08T20:37:08;100402.13;;;8.60;47.09
42671;BME280;28283;55.426;37.756;2023-04-08T20:42:09;100389.13;;;8.39;49.25
42671;BME280;28283;55.426;37.756;2023-04-08T20:47:10;100404.09;;;8.42;48.95
42671;BME280;28283;55.426;37.756;2023-04-08T20:52:10;100388.09;;;8.32;48.93
42671;BME280;28283;55.426;37.756;2023-04-08T20:57:11;100391.81;;;8.39;49.24
42671;BME280;28283;55.426;37.756;2023-04-08T21:02:12;100396.66;;;8.36;49.86
42671;BME280;28283;55.426;37.756;2023-04-08T21:07:12;100372.84;;;8.25;49.80
42671;BME280;28283;55.426;37.756;2023-04-08T21:12:13;100383.41;;;8.34;50.02
42671;BME280;28283;55.426;37.756;2023-04-08T21:17:13;100413.78;;;8.43;49.85
42671;BME280;28283;55.426;37.756;2023-04-08T21:22:14;100394.03;;;8.44;50.27
42671;BME280;28283;55.426;37.756;2023-04-08T21:27:15;100385.09;;;8.35;50.38
42671;BME280;28283;55.426;37.756;2023-04-08T21:32:16;100405.19;;;8.39;50.08
42671;BME280;28283;55.426;37.756;2023-04-08T21:37:17;100406.22;;;8.38;50.56
42671;BME280;28283;55.426;37.756;2023-04-08T21:42:20;100404.53;;;8.37;49.86
42671;BME280;28283;55.426;37.756;2023-04-08T21:47:22;100401.63;;;8.31;50.35
42671;BME280;28283;55.426;37.756;2023-04-08T21:52:22;100406.84;;;8.32;50.79
42671;BME280;28283;55.426;37.756;2023-04-08T21:57:23;100415.75;;;8.33;50.61
42671;BME280;28283;55.426;37.756;2023-04-08T22:02:24;100419.03;;;8.27;50.93
42671;BME280;28283;55.426;37.756;2023-04-08T22:07:24;100406.47;;;8.27;50.41
42671;BME280;28283;55.426;37.756;2023-04-08T22:12:25;100412.53;;;8.29;50.74
42671;BME280;28283;55.426;37.756;2023-04-08T22:17:25;100407.28;;;8.19;50.55
42671;BME280;28283;55.426;37.756;2023-04-08T22:22:26;100419.53;;;8.22;50.89
42671;BME280;28283;55.426;37.756;2023-04-08T22:27:27;100410.09;;;8.10;51.28
42671;BME280;28283;55.426;37.756;2023-04-08T22:32:28;100408.38;;;8.00;51.65
42671;BME280;28283;55.426;37.756;2023-04-08T22:37:30;100407.50;;;8.00;51.63
42671;BME280;28283;55.426;37.756;2023-04-08T22:42:30;100423.56;;;8.00;52.13
42671;BME280;28283;55.426;37.756;2023-04-08T22:47:31;100406.81;;;7.90;51.84
42671;BME280;28283;55.426;37.756;2023-04-08T22:52:31;100407.25;;;7.85;52.06
42671;BME280;28283;55.426;37.756;2023-04-08T22:57:32;100392.94;;;7.68;52.72
42671;BME280;28283;55.426;37.756;2023-04-08T23:02:33;100406.13;;;7.70;53.21
42671;BME280;28283;55.426;37.756;2023-04-08T23:07:34;100362.50;;;7.43;52.42
42671;BME280;28283;55.426;37.756;2023-04-08T23:12:35;100415.25;;;7.59;53.05
42671;BME280;28283;55.426;37.756;2023-04-08T23:17:35;100403.88;;;7.57;52.98
42671;BME280;28283;55.426;37.756;2023-04-08T23:22:36;100406.03;;;7.53;53.19
42671;BME280;28283;55.426;37.756;2023-04-08T23:27:36;100390.22;;;7.42;53.58
42671;BME280;28283;55.426;37.756;2023-04-08T23:32:37;100416.41;;;7.56;52.91
42671;BME280;28283;55.426;37.756;2023-04-08T23:37:37;100423.63;;;7.56;53.30
42671;BME280;28283;55.426;37.756;2023-04-08T23:42:39;100423.09;;;7.52;53.57
42671;BME280;28283;55.426;37.756;2023-04-08T23:47:39;100412.31;;;7.44;53.68
42671;BME280;28283;55.426;37.756;2023-04-08T23:52:40;100409.88;;;7.33;53.97
42671;BME280;28283;55.426;37.756;2023-04-08T23:57:41;100404.53;;;7.33;53.96
